createdAt,value
2023-02-24T00:00:23.673Z,5.4
2023-02-24T00:05:25.495Z,5.4
2023-02-24T00:10:32.283Z,5.4
2023-02-24T00:15:20.435Z,5.4
2023-02-24T00:20:27.457Z,5.4
2023-02-24T00:25:32.823Z,5.4
2023-02-24T00:30:21.849Z,5.5
2023-02-24T00:35:28.256Z,5.5
2023-02-24T00:40:34.919Z,5.4
2023-02-24T00:45:22.144Z,5.4
2023-02-24T00:50:29.254Z,5.5
2023-02-24T00:55:35.593Z,5.6
2023-02-24T01:00:25.909Z,5.5
2023-02-24T01:05:30.161Z,5.4
2023-02-24T01:10:21.392Z,5.4
2023-02-24T01:15:24.234Z,5.4
2023-02-24T01:20:32.998Z,5.4
2023-02-24T01:25:19.335Z,5.3
2023-02-24T01:30:25.726Z,5.3
2023-02-24T01:35:31.438Z,5.3
2023-02-24T01:40:22.736Z,5.3
2023-02-24T01:45:27.167Z,5.3
2023-02-24T01:50:33.686Z,5.3
2023-02-24T01:55:22.304Z,5.3
2023-02-24T02:00:33.005Z,5.3
2023-02-24T02:05:34.676Z,5.2
2023-02-24T02:10:22.746Z,5.3
2023-02-24T02:15:29.011Z,5.4
2023-02-24T02:20:36.752Z,5.3
2023-02-24T02:25:23.744Z,5.3
2023-02-24T02:30:30.889Z,5.3
2023-02-24T02:35:18.658Z,5.4
2023-02-24T02:40:26.907Z,5.4
2023-02-24T02:45:30.483Z,5.4
2023-02-24T02:50:19.723Z,5.4
2023-02-24T02:55:25.863Z,5.5
2023-02-24T03:00:33.961Z,5.5
2023-02-24T03:05:20.634Z,5.5
2023-02-24T03:10:26.220Z,5.5
2023-02-24T03:15:33.432Z,5.5
2023-02-24T03:20:23.946Z,5.6
2023-02-24T03:25:27.464Z,5.6
2023-02-24T03:30:34.208Z,5.8
2023-02-24T03:35:22.615Z,6.0
2023-02-24T03:40:29.453Z,6.2
2023-02-24T03:45:34.450Z,6.2
2023-02-24T03:50:23.506Z,6.3
2023-02-24T03:55:29.578Z,6.3
2023-02-24T04:00:23.762Z,6.4
2023-02-24T04:05:25.269Z,6.4
2023-02-24T04:10:30.985Z,6.4
2023-02-24T04:15:20.039Z,6.3
2023-02-24T04:20:28.503Z,6.3
2023-02-24T04:25:32.438Z,6.3
2023-02-24T04:30:20.904Z,6.2
2023-02-24T04:35:27.698Z,6.1
2023-02-24T04:40:33.757Z,6.1
2023-02-24T04:45:21.528Z,6.1
2023-02-24T04:50:28.107Z,6.0
2023-02-24T04:55:34.577Z,6.0
2023-02-24T05:00:25.065Z,6.0
2023-02-24T05:05:28.781Z,6.0
2023-02-24T05:10:36.900Z,6.1
2023-02-24T05:15:23.318Z,6.2
2023-02-24T05:20:29.907Z,6.2
2023-02-24T05:25:18.141Z,6.1
2023-02-24T05:30:24.981Z,6.1
2023-02-24T05:35:31.158Z,6.1
2023-02-24T05:40:22.045Z,6.1
2023-02-24T05:45:25.865Z,6.0
2023-02-24T05:50:32.220Z,5.8
2023-02-24T05:55:20.814Z,5.7
2023-02-24T06:00:33.785Z,5.7
2023-02-24T06:05:33.526Z,5.6
2023-02-24T06:10:22.113Z,5.4
2023-02-24T06:15:28.713Z,5.5
2023-02-24T06:20:36.017Z,5.5
2023-02-24T06:25:22.964Z,5.5
2023-02-24T06:30:29.583Z,5.5
2023-02-24T06:35:35.008Z,5.6
2023-02-24T06:40:24.571Z,5.6
2023-02-24T06:45:30.384Z,5.7
2023-02-24T06:50:18.704Z,5.7
2023-02-24T06:55:24.906Z,5.7
2023-02-24T07:00:36.428Z,5.7
2023-02-24T07:05:19.968Z,5.7
2023-02-24T07:10:27.168Z,5.8
2023-02-24T07:15:31.834Z,5.8
2023-02-24T07:20:21.053Z,5.8
2023-02-24T07:25:26.862Z,5.9
2023-02-24T07:30:33.541Z,6.0
2023-02-24T07:35:21.825Z,5.9
2023-02-24T07:40:28.593Z,6.0
2023-02-24T07:45:33.687Z,6.0
2023-02-24T07:50:22.492Z,6.0
2023-02-24T07:55:28.817Z,6.1
2023-02-24T08:00:37.574Z,6.2
2023-02-24T08:05:23.634Z,6.4
2023-02-24T08:10:30.065Z,6.5
2023-02-24T08:15:18.892Z,6.4
2023-02-24T08:20:25.828Z,6.5
2023-02-24T08:25:31.263Z,6.5
2023-02-24T08:30:20.245Z,6.6
2023-02-24T08:35:25.932Z,6.7
2023-02-24T08:40:33.870Z,6.8
2023-02-24T08:45:20.617Z,6.7
2023-02-24T08:50:26.939Z,6.8
2023-02-24T08:55:33.464Z,7.0
2023-02-24T09:00:24.093Z,6.9
2023-02-24T09:05:28.299Z,7.0
2023-02-24T09:10:39.943Z,7.0
2023-02-24T09:15:22.585Z,7.1
2023-02-24T09:20:30.833Z,7.1
2023-02-24T09:25:35.280Z,7.1
2023-02-24T09:30:24.118Z,7.2
2023-02-24T09:35:29.608Z,7.1
2023-02-24T09:40:18.930Z,7.1
2023-02-24T09:45:24.338Z,7.2
2023-02-24T09:50:59.075Z,7.2
2023-02-24T09:55:19.422Z,7.3
2023-02-24T10:00:28.841Z,7.4
2023-02-24T10:05:32.258Z,7.4
2023-02-24T10:10:20.784Z,7.4
2023-02-24T10:15:27.570Z,7.4
2023-02-24T10:20:33.659Z,7.4
2023-02-24T10:25:22.317Z,7.4
2023-02-24T10:30:28.312Z,7.4
2023-02-24T10:35:47.467Z,7.5
2023-02-24T10:40:23.454Z,7.7
2023-02-24T10:45:28.660Z,7.6
2023-02-24T10:50:34.911Z,7.6
2023-02-24T10:55:23.559Z,7.7
2023-02-24T11:00:33.992Z,7.9
2023-02-24T11:05:18.710Z,7.7
2023-02-24T11:10:29.904Z,8.1
2023-02-24T11:15:30.687Z,8.2
2023-02-24T11:20:20.302Z,8.5
2023-02-24T11:25:26.409Z,8.6
2023-02-24T11:30:31.869Z,8.3
2023-02-24T11:35:20.728Z,8.4
2023-02-24T11:40:28.465Z,8.5
2023-02-24T11:45:32.828Z,8.9
2023-02-24T11:50:21.422Z,8.8
2023-02-24T11:55:28.024Z,8.9
2023-02-24T12:00:37.603Z,8.6
2023-02-24T12:05:23.528Z,8.6
2023-02-24T12:10:31.650Z,8.6
2023-02-24T12:15:34.718Z,8.3
2023-02-24T12:20:24.413Z,8.3
2023-02-24T12:25:30.110Z,8.8
2023-02-24T12:30:20.249Z,8.6
2023-02-24T12:35:25.682Z,8.8
2023-02-24T12:40:33.322Z,8.9
2023-02-24T12:45:19.722Z,8.9
2023-02-24T12:50:26.105Z,8.8
2023-02-24T12:55:32.991Z,8.6
2023-02-24T13:00:22.794Z,8.8
2023-02-24T13:05:26.264Z,8.8
2023-02-24T13:10:35.147Z,8.6
2023-02-24T13:15:21.269Z,8.4
2023-02-24T13:20:29.246Z,8.3
2023-02-24T13:25:33.870Z,8.2
2023-02-24T13:30:22.680Z,8.1
2023-02-24T13:35:30.386Z,8.0
2023-02-24T13:40:38.181Z,8.3
2023-02-24T13:45:25.910Z,8.3
2023-02-24T13:50:34.052Z,8.3
2023-02-24T13:55:19.231Z,8.4
2023-02-24T14:00:36.295Z,8.5
2023-02-24T14:05:39.178Z,8.5
2023-02-24T14:10:26.799Z,8.6
2023-02-24T14:15:28.841Z,8.7
2023-02-24T14:20:35.681Z,8.8
2023-02-24T14:25:21.954Z,8.7
2023-02-24T14:30:33.219Z,8.6
2023-02-24T14:35:37.788Z,8.5
2023-02-24T14:40:26.243Z,8.5
2023-02-24T14:45:27.810Z,8.5
2023-02-24T14:50:34.432Z,8.6
2023-02-24T14:55:23.045Z,8.6
2023-02-24T15:00:33.138Z,8.4
2023-02-24T15:05:34.679Z,8.3
2023-02-24T15:10:26.132Z,8.4
2023-02-24T15:15:31.018Z,8.3
2023-02-24T15:20:19.669Z,8.2
2023-02-24T15:25:33.716Z,8.0
2023-02-24T15:30:31.130Z,7.9
2023-02-24T15:35:20.100Z,7.7
2023-02-24T15:40:28.693Z,7.6
2023-02-24T15:45:32.091Z,7.7
2023-02-24T15:50:20.688Z,7.6
2023-02-24T15:55:27.170Z,7.6
2023-02-24T16:00:38.321Z,7.6
2023-02-24T16:05:22.933Z,7.5
2023-02-24T16:10:29.251Z,7.5
2023-02-24T16:15:33.770Z,7.5
2023-02-24T16:20:23.100Z,7.4
2023-02-24T16:25:28.683Z,7.3
2023-02-24T16:30:38.942Z,7.3
2023-02-24T16:35:23.822Z,7.2
2023-02-24T16:40:30.222Z,7.2
2023-02-24T16:45:18.596Z,7.2
2023-02-24T16:50:24.857Z,7.2
2023-02-24T16:55:30.737Z,7.1
2023-02-24T17:00:24.099Z,7.1
2023-02-24T17:05:26.514Z,7.1
2023-02-24T17:10:33.168Z,7.1
2023-02-24T17:15:21.504Z,7.1
2023-02-24T17:20:26.898Z,7.1
2023-02-24T17:25:33.708Z,7.0
2023-02-24T17:30:22.387Z,7.0
2023-02-24T17:35:28.892Z,6.8
2023-02-24T17:40:34.911Z,6.7
2023-02-24T17:45:22.733Z,6.7
2023-02-24T17:50:29.390Z,6.6
2023-02-24T17:55:35.990Z,6.5
2023-02-24T18:00:26.682Z,6.5
2023-02-24T18:05:29.827Z,6.4
2023-02-24T18:10:21.870Z,6.4
2023-02-24T18:15:28.397Z,6.3
2023-02-24T18:20:31.154Z,6.3
2023-02-24T18:25:29.315Z,6.2
2023-02-24T18:30:26.116Z,6.1
2023-02-24T18:35:32.720Z,6.0
2023-02-24T18:40:28.906Z,5.9
2023-02-24T18:45:26.687Z,5.8
2023-02-24T18:50:32.734Z,5.8
2023-02-24T18:55:21.744Z,5.8
2023-02-24T19:00:34.722Z,5.7
2023-02-24T19:05:38.779Z,5.7
2023-02-24T19:10:26.126Z,5.7
2023-02-24T19:15:29.090Z,5.6
2023-02-24T19:20:37.408Z,5.6
2023-02-24T19:25:23.925Z,5.6
2023-02-24T19:30:30.966Z,5.6
2023-02-24T19:35:19.195Z,5.3
2023-02-24T19:40:25.702Z,4.8
2023-02-24T19:45:30.905Z,4.5
2023-02-24T19:50:19.719Z,4.2
2023-02-24T19:55:26.490Z,4.0
2023-02-24T20:00:37.004Z,3.8
2023-02-24T20:05:20.258Z,3.6
2023-02-24T20:10:30.829Z,3.5
2023-02-24T20:15:32.953Z,3.3
2023-02-24T20:20:21.945Z,3.1
2023-02-24T20:25:27.134Z,3.1
2023-02-24T20:30:33.816Z,2.9
2023-02-24T20:35:23.160Z,2.8
2023-02-24T20:40:29.554Z,2.6
2023-02-24T20:45:34.559Z,2.5
2023-02-24T20:50:23.062Z,2.4
2023-02-24T20:55:29.617Z,2.3
2023-02-24T21:00:19.972Z,2.3
2023-02-24T21:05:25.349Z,2.3
2023-02-24T21:10:33.724Z,2.2
2023-02-24T21:15:19.736Z,2.2
2023-02-24T21:20:26.119Z,2.2
2023-02-24T21:25:33.309Z,2.1
2023-02-24T21:30:20.985Z,2.0
2023-02-24T21:35:27.272Z,2.0
2023-02-24T21:40:34.498Z,1.9
2023-02-24T21:45:21.461Z,1.9
2023-02-24T21:50:28.223Z,1.9
2023-02-24T21:55:33.725Z,1.8
2023-02-24T22:00:28.882Z,1.8
2023-02-24T22:05:35.948Z,1.8
2023-02-24T22:10:34.806Z,1.7
2023-02-24T22:15:23.780Z,1.7
2023-02-24T22:20:29.391Z,1.6
2023-02-24T22:25:18.433Z,1.6
2023-02-24T22:30:24.838Z,1.5
2023-02-24T22:35:31.247Z,1.5
2023-02-24T22:40:21.672Z,1.4
2023-02-24T22:45:25.462Z,1.5
2023-02-24T22:50:31.484Z,1.5
2023-02-24T22:55:20.734Z,1.5
2023-02-24T23:00:33.837Z,1.5
2023-02-24T23:05:33.678Z,1.5
2023-02-24T23:10:24.062Z,1.5
2023-02-24T23:15:28.465Z,1.5
2023-02-24T23:20:35.341Z,1.5
2023-02-24T23:25:23.259Z,1.6
2023-02-24T23:30:29.734Z,1.6
2023-02-24T23:35:35.331Z,1.6
2023-02-24T23:40:25.104Z,1.6
2023-02-24T23:45:30.221Z,1.7
2023-02-24T23:50:18.882Z,1.7
2023-02-24T23:55:25.182Z,1.7
